Duizel_ZO2.png

Nieuwsberichten

 

 

Hieronder vind u de uitslagen van race van de dames elite/beloften:

 

Pos Voornaam Achternaam Nr. Ronden Tot. Tijd Beste Td In Rnd Woonplaats
1 Ymke Stegink 37 30 1:35:21.563 2:59.091 18 HEUSDEN
2 Charlotte Kool 20 30 1:35:31.887 3:01.027 30 KORTENHOEF
3 Lizzy Witlox 49 30 1:35:32.491 2:59.362 30 EINDHOVEN
4 Jessie Hodges 11 30 1:35:33.664 2:56.288 24  
5 Tessa Neefjes 30 30 1:35:33.739 3:00.665 24 Wervershoof
6 Céline van Houtum 14 30 1:35:33.844 3:00.671 24 DEN DUNGEN
7 Melissa van der Peet 33 30 1:35:33.895 3:03.221 30 DEN HAAG
8 Hanneke Mulder 29 30 1:35:33.933 2:58.513 18 Utrecht
9 Britt Teunissen 39 30 1:35:34.140 3:02.472 18 YSSELSTEYN LB
10 Ayesha McGowan 26 30 1:35:34.162 3:01.014 18  
11 Willemiek Meinders 27 30 1:35:34.355 3:03.109 24 Dronten
12 Femke Geeris 8 30 1:35:34.527 2:58.691 18 GELDROP
13 Judith Bloem 5 30 1:35:34.638 3:00.341 25 Apeldoorn
14 Maddy Ward 46 30 1:35:34.742 3:01.227 18  
15 Carleen Baas 1 30 1:35:34.814 3:02.345 18 BLADEL
16 Kirsten Westerhuis 47 30 1:35:34.957 3:01.990 18 Leersum
17 Kimberly Nieuwerth 31 30 1:35:35.094 2:57.254 24 BERGAMBACHT
18 Esther Meisels 28 30 1:35:35.488 3:01.060 21 USA
19 Eveline de Groot 9 30 1:35:35.683 3:00.443 24 ZOETERMEER
20 Tessa Hoogma 12 30 1:35:35.989 3:02.580 18 Utrecht
21 Jet Wildeman 51 30 1:35:36.185 3:00.637 24 Nijmegen
22 Judith Jelsma 16 30 1:35:36.238 3:01.181 25 Amstelveen
23 Erika Sosa 36 30 1:35:36.530 3:01.037 25  
24 Ingrid Tempert 38 30 1:35:36.672 3:02.241 18 Lemele
25 Mary Maroon 25 30 1:35:37.127 3:01.468 18 USA
26 Inez Beijer 3 30 1:35:37.313 3:00.535 25 Driel
27 Bianca Lust 24 30 1:35:37.348 3:00.357 25 OOSTZAAN
28 Rosan Baas 2 30 1:35:37.810 3:02.070 25 DEN DUNGEN
29 Andrea van Loo 23 30 1:35:38.126 3:00.977 25 t Harde
30 Ingeborg Bremmers 6 30 1:35:38.922 2:59.963 25 amstelveen
31 Eva Bijwaard 4 30 1:35:39.996 3:01.400 18 HILLEGOM
32 Kate Wightman 48 29 1:33:59.195 3:02.682 18  
33 Liesbeth Zeeman 50 29 1:34:32.579 3:04.305 18 OUDKARSPEL
DNF Dieke Hendriks 10 27 1:28:14.971 2:31.273 27 VUGHT
DNF Lana Verberne 42 26 1:26:05.246 1:13.934 26 Bergeijk
DNF Jeanine Laudy 22 25 1:23:02.090 3:04.178 8 Roelofarendsveen
DNF Nielske Bremmers 7 25 1:24:51.334 3:04.023 18 VALKENSWAARD
DNF Geartsje de Vries 45 23 1:34:57.247 3:54.140 3 Arnhem
DNF Emelie Persson 34 17 54:15.368 3:04.165 8  
DNF Ione Johnson 17 17 54:45.771 3:04.906 8  
DNF Sanne Vermeer 44 17 55:00.973 3:04.570 8 DODEWAARD
DNF Lisanne Immerzeel 15 17 55:32.376 2:23.649 17 WILNIS
DNF Sofie van Horik 13 16 54:32.375 3:05.991 13 OOSTERWIJK
DNF Lot van Opstal 32 9 35:49.331 3:12.004 2 CHAAM
DNF Daniela Tr?ková 40 8 25:50.847 3:08.722 2  
DNS Alicja Verhagen 43       0 Woerden
DNS Linda Scholten 35       0 ZUTPHEN
DNS Sandra van Veghel 41       0 ESCH
DNS Evy Kuijpers 21       0 LIEROP
DNS Janieke Kalsbeek 18       0 Leeuwarden
DNS Rachelle van Kappel 19       0 LINSCHOTEN